sensor_id;sensor_type;location;lat;lon;timestamp;pressure;altitude;pressure_sealevel;temperature;humidity
77333;BME280;66408;51.326;12.070;2023-03-01T00:00:49;102185.13;;;-1.94;68.25
77333;BME280;66408;51.326;12.070;2023-03-01T00:03:15;102186.47;;;-1.98;68.16
77333;BME280;66408;51.326;12.070;2023-03-01T00:05:46;102188.06;;;-2.11;67.62
77333;BME280;66408;51.326;12.070;2023-03-01T00:08:13;102183.06;;;-2.14;67.66
77333;BME280;66408;51.326;12.070;2023-03-01T00:10:39;102191.22;;;-2.16;69.59
77333;BME280;66408;51.326;12.070;2023-03-01T00:13:06;102192.38;;;-2.10;68.90
77333;BME280;66408;51.326;12.070;2023-03-01T00:15:32;102186.41;;;-2.12;70.21
77333;BME280;66408;51.326;12.070;2023-03-01T00:18:01;102188.69;;;-2.09;71.08
77333;BME280;66408;51.326;12.070;2023-03-01T00:20:28;102177.91;;;-2.16;71.49
77333;BME280;66408;51.326;12.070;2023-03-01T00:22:55;102178.56;;;-2.14;70.74
77333;BME280;66408;51.326;12.070;2023-03-01T00:25:21;102168.03;;;-2.07;70.23
77333;BME280;66408;51.326;12.070;2023-03-01T00:27:48;102167.38;;;-2.09;70.94
77333;BME280;66408;51.326;12.070;2023-03-01T00:30:15;102167.38;;;-2.09;69.87
77333;BME280;66408;51.326;12.070;2023-03-01T00:32:42;102164.53;;;-2.08;69.02
77333;BME280;66408;51.326;12.070;2023-03-01T00:35:08;102164.38;;;-2.06;68.67
77333;BME280;66408;51.326;12.070;2023-03-01T00:37:35;102174.69;;;-2.03;68.38
77333;BME280;66408;51.326;12.070;2023-03-01T00:40:01;102164.28;;;-2.21;69.45
77333;BME280;66408;51.326;12.070;2023-03-01T00:42:32;102164.97;;;-2.27;68.56
77333;BME280;66408;51.326;12.070;2023-03-01T00:44:58;102167.94;;;-2.22;68.10
77333;BME280;66408;51.326;12.070;2023-03-01T00:47:25;102165.84;;;-2.35;68.33
77333;BME280;66408;51.326;12.070;2023-03-01T00:49:51;102156.34;;;-2.29;68.78
77333;BME280;66408;51.326;12.070;2023-03-01T00:52:18;102149.69;;;-2.33;68.86
77333;BME280;66408;51.326;12.070;2023-03-01T00:54:44;102151.78;;;-2.21;69.14
77333;BME280;66408;51.326;12.070;2023-03-01T00:57:11;102153.72;;;-2.37;67.96
77333;BME280;66408;51.326;12.070;2023-03-01T00:59:37;102144.84;;;-2.30;68.49
77333;BME280;66408;51.326;12.070;2023-03-01T01:02:04;102148.69;;;-2.32;68.55
77333;BME280;66408;51.326;12.070;2023-03-01T01:04:30;102155.84;;;-2.33;68.85
77333;BME280;66408;51.326;12.070;2023-03-01T01:06:57;102140.34;;;-2.29;69.42
77333;BME280;66408;51.326;12.070;2023-03-01T01:09:23;102140.84;;;-2.34;70.28
77333;BME280;66408;51.326;12.070;2023-03-01T01:11:50;102132.03;;;-2.34;70.52
77333;BME280;66408;51.326;12.070;2023-03-01T01:14:18;102129.91;;;-2.39;71.30
77333;BME280;66408;51.326;12.070;2023-03-01T01:16:45;102131.69;;;-2.31;70.73
77333;BME280;66408;51.326;12.070;2023-03-01T01:19:13;102132.03;;;-2.26;70.34
77333;BME280;66408;51.326;12.070;2023-03-01T01:21:40;102133.84;;;-2.27;70.88
77333;BME280;66408;51.326;12.070;2023-03-01T01:24:09;102139.47;;;-2.22;70.36
77333;BME280;66408;51.326;12.070;2023-03-01T01:26:36;102135.47;;;-2.18;70.21
77333;BME280;66408;51.326;12.070;2023-03-01T01:29:03;102126.97;;;-2.21;69.88
77333;BME280;66408;51.326;12.070;2023-03-01T01:31:31;102112.72;;;-2.05;69.98
77333;BME280;66408;51.326;12.070;2023-03-01T01:33:59;102113.25;;;-2.10;68.60
77333;BME280;66408;51.326;12.070;2023-03-01T01:36:26;102108.13;;;-2.11;68.63
77333;BME280;66408;51.326;12.070;2023-03-01T01:38:53;102103.31;;;-2.16;68.42
77333;BME280;66408;51.326;12.070;2023-03-01T01:41:21;102106.38;;;-2.27;68.00
77333;BME280;66408;51.326;12.070;2023-03-01T01:44:08;102101.56;;;-2.32;68.38
77333;BME280;66408;51.326;12.070;2023-03-01T01:46:41;102111.28;;;-2.39;67.85
77333;BME280;66408;51.326;12.070;2023-03-01T01:51:45;102099.03;;;-2.48;68.26
77333;BME280;66408;51.326;12.070;2023-03-01T01:54:20;102097.53;;;-2.59;67.82
77333;BME280;66408;51.326;12.070;2023-03-01T01:56:56;102094.06;;;-2.59;68.37
77333;BME280;66408;51.326;12.070;2023-03-01T01:59:25;102101.97;;;-2.74;68.84
77333;BME280;66408;51.326;12.070;2023-03-01T02:01:52;102084.44;;;-2.68;68.90
77333;BME280;66408;51.326;12.070;2023-03-01T02:04:20;102077.84;;;-2.72;68.76
77333;BME280;66408;51.326;12.070;2023-03-01T02:06:57;102090.31;;;-2.73;68.60
77333;BME280;66408;51.326;12.070;2023-03-01T02:09:25;102090.66;;;-2.76;68.48
77333;BME280;66408;51.326;12.070;2023-03-01T02:11:53;102091.47;;;-2.75;68.54
77333;BME280;66408;51.326;12.070;2023-03-01T02:14:20;102088.84;;;-2.83;68.74
77333;BME280;66408;51.326;12.070;2023-03-01T02:16:47;102089.88;;;-2.84;69.23
77333;BME280;66408;51.326;12.070;2023-03-01T02:19:35;102083.72;;;-2.85;69.26
77333;BME280;66408;51.326;12.070;2023-03-01T02:22:18;102073.91;;;-2.84;69.52
77333;BME280;66408;51.326;12.070;2023-03-01T02:30:41;102074.94;;;-3.02;68.78
77333;BME280;66408;51.326;12.070;2023-03-01T02:33:29;102077.91;;;-2.97;68.10
77333;BME280;66408;51.326;12.070;2023-03-01T02:36:00;102084.09;;;-3.04;68.98
77333;BME280;66408;51.326;12.070;2023-03-01T02:38:28;102080.59;;;-3.05;68.59
77333;BME280;66408;51.326;12.070;2023-03-01T02:40:56;102073.31;;;-3.11;69.18
77333;BME280;66408;51.326;12.070;2023-03-01T02:43:27;102077.28;;;-3.07;69.28
77333;BME280;66408;51.326;12.070;2023-03-01T02:46:02;102078.28;;;-3.08;69.07
77333;BME280;66408;51.326;12.070;2023-03-01T02:48:43;102082.59;;;-3.07;69.23
77333;BME280;66408;51.326;12.070;2023-03-01T02:56:40;102087.91;;;-3.07;68.61
77333;BME280;66408;51.326;12.070;2023-03-01T02:59:08;102084.28;;;-3.14;68.99
77333;BME280;66408;51.326;12.070;2023-03-01T03:01:35;102079.63;;;-3.20;68.40
77333;BME280;66408;51.326;12.070;2023-03-01T03:04:10;102074.84;;;-3.24;69.28
77333;BME280;66408;51.326;12.070;2023-03-01T03:06:37;102079.34;;;-3.25;70.53
77333;BME280;66408;51.326;12.070;2023-03-01T03:09:04;102079.34;;;-3.25;70.41
77333;BME280;66408;51.326;12.070;2023-03-01T03:11:31;102083.97;;;-3.19;69.96
77333;BME280;66408;51.326;12.070;2023-03-01T03:13:58;102083.00;;;-3.26;69.02
77333;BME280;66408;51.326;12.070;2023-03-01T03:16:25;102081.97;;;-3.17;69.77
77333;BME280;66408;51.326;12.070;2023-03-01T03:18:51;102080.50;;;-3.28;69.28
77333;BME280;66408;51.326;12.070;2023-03-01T03:21:18;102083.66;;;-3.32;69.15
77333;BME280;66408;51.326;12.070;2023-03-01T03:23:44;102082.66;;;-3.31;69.61
77333;BME280;66408;51.326;12.070;2023-03-01T03:26:11;102084.31;;;-3.30;69.90
77333;BME280;66408;51.326;12.070;2023-03-01T03:28:39;102070.84;;;-3.29;69.60
77333;BME280;66408;51.326;12.070;2023-03-01T03:31:07;102065.88;;;-3.23;69.86
77333;BME280;66408;51.326;12.070;2023-03-01T03:33:34;102066.22;;;-3.27;69.25
77333;BME280;66408;51.326;12.070;2023-03-01T03:36:01;102062.03;;;-3.21;70.26
77333;BME280;66408;51.326;12.070;2023-03-01T03:38:28;102060.72;;;-3.25;70.33
77333;BME280;66408;51.326;12.070;2023-03-01T03:41:06;102059.19;;;-3.19;70.90
77333;BME280;66408;51.326;12.070;2023-03-01T03:43:36;102061.34;;;-3.15;70.23
77333;BME280;66408;51.326;12.070;2023-03-01T03:46:03;102057.84;;;-3.15;70.57
77333;BME280;66408;51.326;12.070;2023-03-01T03:48:38;102059.03;;;-3.18;69.73
77333;BME280;66408;51.326;12.070;2023-03-01T03:51:04;102052.56;;;-3.23;68.67
77333;BME280;66408;51.326;12.070;2023-03-01T03:53:32;102051.56;;;-3.31;68.28
77333;BME280;66408;51.326;12.070;2023-03-01T03:55:58;102047.47;;;-3.41;69.08
77333;BME280;66408;51.326;12.070;2023-03-01T03:58:25;102044.50;;;-3.54;68.97
77333;BME280;66408;51.326;12.070;2023-03-01T04:00:54;102040.19;;;-3.64;68.96
77333;BME280;66408;51.326;12.070;2023-03-01T04:03:26;102047.00;;;-3.61;69.60
77333;BME280;66408;51.326;12.070;2023-03-01T04:05:52;102045.00;;;-3.59;69.50
77333;BME280;66408;51.326;12.070;2023-03-01T04:08:21;102048.47;;;-3.50;70.10
77333;BME280;66408;51.326;12.070;2023-03-01T04:10:51;102048.63;;;-3.44;70.77
77333;BME280;66408;51.326;12.070;2023-03-01T04:13:22;102045.78;;;-3.42;69.33
77333;BME280;66408;51.326;12.070;2023-03-01T04:15:50;102041.81;;;-3.38;68.95
77333;BME280;66408;51.326;12.070;2023-03-01T04:18:19;102039.84;;;-3.52;68.47
77333;BME280;66408;51.326;12.070;2023-03-01T04:20:46;102043.69;;;-3.63;68.69
77333;BME280;66408;51.326;12.070;2023-03-01T04:23:18;102045.00;;;-3.67;69.43
77333;BME280;66408;51.326;12.070;2023-03-01T04:25:50;102042.19;;;-3.66;69.63
77333;BME280;66408;51.326;12.070;2023-03-01T04:28:24;102042.50;;;-3.69;69.72
77333;BME280;66408;51.326;12.070;2023-03-01T04:30:51;102039.69;;;-3.59;70.48
77333;BME280;66408;51.326;12.070;2023-03-01T04:33:18;102038.38;;;-3.63;69.81
77333;BME280;66408;51.326;12.070;2023-03-01T04:35:45;102031.53;;;-3.57;69.03
77333;BME280;66408;51.326;12.070;2023-03-01T04:38:11;102033.22;;;-3.65;69.25
77333;BME280;66408;51.326;12.070;2023-03-01T04:40:39;102043.00;;;-3.65;69.08
77333;BME280;66408;51.326;12.070;2023-03-01T04:43:05;102035.56;;;-3.78;69.08
77333;BME280;66408;51.326;12.070;2023-03-01T04:45:32;102039.03;;;-3.77;69.05
77333;BME280;66408;51.326;12.070;2023-03-01T04:48:00;102038.22;;;-3.78;69.02
77333;BME280;66408;51.326;12.070;2023-03-01T04:50:27;102040.06;;;-3.86;69.09
77333;BME280;66408;51.326;12.070;2023-03-01T04:52:54;102039.72;;;-3.83;70.03
77333;BME280;66408;51.326;12.070;2023-03-01T04:55:20;102039.03;;;-3.77;70.11
77333;BME280;66408;51.326;12.070;2023-03-01T04:57:47;102043.88;;;-3.73;70.84
77333;BME280;66408;51.326;12.070;2023-03-01T05:00:14;102044.84;;;-3.66;70.09
77333;BME280;66408;51.326;12.070;2023-03-01T05:02:54;102046.34;;;-3.63;70.33
77333;BME280;66408;51.326;12.070;2023-03-01T05:05:36;102048.50;;;-3.67;70.32
77333;BME280;66408;51.326;12.070;2023-03-01T05:08:07;102045.19;;;-3.60;71.41
77333;BME280;66408;51.326;12.070;2023-03-01T05:10:35;102039.19;;;-3.63;71.16
77333;BME280;66408;51.326;12.070;2023-03-01T05:13:03;102042.00;;;-3.56;70.33
77333;BME280;66408;51.326;12.070;2023-03-01T05:15:31;102049.31;;;-3.58;70.89
77333;BME280;66408;51.326;12.070;2023-03-01T05:17:59;102046.13;;;-3.45;70.17
77333;BME280;66408;51.326;12.070;2023-03-01T05:20:27;102039.16;;;-3.54;68.97
77333;BME280;66408;51.326;12.070;2023-03-01T05:22:57;102040.03;;;-3.62;68.53
77333;BME280;66408;51.326;12.070;2023-03-01T05:25:25;102032.22;;;-3.80;68.55
77333;BME280;66408;51.326;12.070;2023-03-01T05:27:51;102042.53;;;-3.77;68.45
77333;BME280;66408;51.326;12.070;2023-03-01T05:30:18;102037.56;;;-3.88;69.08
77333;BME280;66408;51.326;12.070;2023-03-01T05:32:47;102033.72;;;-3.93;69.67
77333;BME280;66408;51.326;12.070;2023-03-01T05:35:16;102038.91;;;-4.08;69.59
77333;BME280;66408;51.326;12.070;2023-03-01T05:37:46;102027.09;;;-4.06;69.71
77333;BME280;66408;51.326;12.070;2023-03-01T05:40:17;102031.59;;;-3.98;69.65
77333;BME280;66408;51.326;12.070;2023-03-01T05:42:54;102033.41;;;-3.99;69.55
77333;BME280;66408;51.326;12.070;2023-03-01T05:45:23;102042.06;;;-3.96;68.86
77333;BME280;66408;51.326;12.070;2023-03-01T05:47:50;102040.22;;;-3.88;69.54
77333;BME280;66408;51.326;12.070;2023-03-01T05:50:26;102041.69;;;-3.93;68.53
77333;BME280;66408;51.326;12.070;2023-03-01T05:52:59;102034.25;;;-4.22;70.02
77333;BME280;66408;51.326;12.070;2023-03-01T05:55:26;102040.19;;;-4.28;69.64
77333;BME280;66408;51.326;12.070;2023-03-01T05:57:54;102038.72;;;-4.15;70.11
77333;BME280;66408;51.326;12.070;2023-03-01T06:00:21;102033.72;;;-4.26;70.13
77333;BME280;66408;51.326;12.070;2023-03-01T06:02:49;102036.03;;;-4.31;69.72
77333;BME280;66408;51.326;12.070;2023-03-01T06:05:15;102040.22;;;-4.20;69.84
77333;BME280;66408;51.326;12.070;2023-03-01T06:07:42;102040.84;;;-4.18;69.13
77333;BME280;66408;51.326;12.070;2023-03-01T06:10:10;102044.69;;;-4.13;69.64
77333;BME280;66408;51.326;12.070;2023-03-01T06:12:38;102053.00;;;-4.24;68.70
77333;BME280;66408;51.326;12.070;2023-03-01T06:15:06;102049.81;;;-4.19;69.58
77333;BME280;66408;51.326;12.070;2023-03-01T06:17:34;102051.16;;;-4.23;69.88
77333;BME280;66408;51.326;12.070;2023-03-01T06:20:05;102054.31;;;-4.12;70.30
77333;BME280;66408;51.326;12.070;2023-03-01T06:22:32;102060.78;;;-4.06;69.88
77333;BME280;66408;51.326;12.070;2023-03-01T06:24:59;102061.97;;;-4.01;70.24
77333;BME280;66408;51.326;12.070;2023-03-01T06:27:25;102058.63;;;-4.03;70.36
77333;BME280;66408;51.326;12.070;2023-03-01T06:29:51;102052.19;;;-4.08;69.92
77333;BME280;66408;51.326;12.070;2023-03-01T06:32:18;102059.47;;;-3.94;69.88
77333;BME280;66408;51.326;12.070;2023-03-01T06:34:45;102058.13;;;-3.82;70.55
77333;BME280;66408;51.326;12.070;2023-03-01T06:37:11;102059.16;;;-3.99;70.28
77333;BME280;66408;51.326;12.070;2023-03-01T06:39:38;102050.16;;;-3.90;70.21
77333;BME280;66408;51.326;12.070;2023-03-01T06:42:05;102054.47;;;-3.81;71.27
77333;BME280;66408;51.326;12.070;2023-03-01T06:44:31;102050.47;;;-3.69;70.78
77333;BME280;66408;51.326;12.070;2023-03-01T06:46:58;102049.81;;;-3.63;70.60
77333;BME280;66408;51.326;12.070;2023-03-01T06:49:25;102052.47;;;-3.54;70.45
77333;BME280;66408;51.326;12.070;2023-03-01T06:51:52;102043.66;;;-3.47;70.58
77333;BME280;66408;51.326;12.070;2023-03-01T06:54:18;102047.47;;;-3.41;71.07
77333;BME280;66408;51.326;12.070;2023-03-01T06:56:49;102046.09;;;-3.29;71.07
77333;BME280;66408;51.326;12.070;2023-03-01T06:59:16;102046.38;;;-3.16;70.57
77333;BME280;66408;51.326;12.070;2023-03-01T07:01:43;102047.50;;;-3.02;69.88
77333;BME280;66408;51.326;12.070;2023-03-01T07:04:11;102044.75;;;-2.78;70.38
77333;BME280;66408;51.326;12.070;2023-03-01T07:06:37;102046.03;;;-2.43;70.83
77333;BME280;66408;51.326;12.070;2023-03-01T07:09:04;102058.03;;;-2.16;70.10
77333;BME280;66408;51.326;12.070;2023-03-01T07:11:31;102050.25;;;-1.80;70.39
77333;BME280;66408;51.326;12.070;2023-03-01T07:13:57;102051.84;;;-1.56;69.37
77333;BME280;66408;51.326;12.070;2023-03-01T07:16:26;102046.56;;;-1.27;69.01
77333;BME280;66408;51.326;12.070;2023-03-01T07:18:53;102048.00;;;-0.95;69.30
77333;BME280;66408;51.326;12.070;2023-03-01T07:21:19;102046.31;;;-0.66;68.44
77333;BME280;66408;51.326;12.070;2023-03-01T07:23:47;102040.69;;;-0.36;68.13
77333;BME280;66408;51.326;12.070;2023-03-01T07:26:14;102040.84;;;-0.01;68.13
77333;BME280;66408;51.326;12.070;2023-03-01T07:28:40;102037.16;;;0.21;67.22
77333;BME280;66408;51.326;12.070;2023-03-01T07:31:12;102029.34;;;0.54;66.86
77333;BME280;66408;51.326;12.070;2023-03-01T07:33:39;102034.50;;;0.84;66.15
77333;BME280;66408;51.326;12.070;2023-03-01T07:36:06;102022.28;;;1.16;65.88
77333;BME280;66408;51.326;12.070;2023-03-01T07:38:33;102026.28;;;1.39;64.45
77333;BME280;66408;51.326;12.070;2023-03-01T07:41:00;102032.72;;;1.52;64.16
77333;BME280;66408;51.326;12.070;2023-03-01T07:43:28;102019.59;;;1.83;63.29
77333;BME280;66408;51.326;12.070;2023-03-01T07:45:58;102020.84;;;2.13;62.79
77333;BME280;66408;51.326;12.070;2023-03-01T07:48:25;102025.56;;;2.51;62.24
77333;BME280;66408;51.326;12.070;2023-03-01T07:50:51;102017.72;;;2.69;61.17
77333;BME280;66408;51.326;12.070;2023-03-01T07:53:18;102020.31;;;2.96;60.61
77333;BME280;66408;51.326;12.070;2023-03-01T07:55:44;102015.94;;;3.08;59.54
77333;BME280;66408;51.326;12.070;2023-03-01T07:58:11;102019.91;;;3.43;59.45
77333;BME280;66408;51.326;12.070;2023-03-01T08:00:37;102018.56;;;3.59;58.35
77333;BME280;66408;51.326;12.070;2023-03-01T08:03:04;102022.56;;;3.50;58.49
77333;BME280;66408;51.326;12.070;2023-03-01T08:05:30;102017.59;;;3.53;57.93
77333;BME280;66408;51.326;12.070;2023-03-01T08:07:57;102019.47;;;3.46;56.97
77333;BME280;66408;51.326;12.070;2023-03-01T08:10:24;102016.94;;;3.58;57.03
77333;BME280;66408;51.326;12.070;2023-03-01T08:12:51;102014.19;;;3.96;57.16
77333;BME280;66408;51.326;12.070;2023-03-01T08:15:18;102009.81;;;4.02;55.99
77333;BME280;66408;51.326;12.070;2023-03-01T08:17:45;102007.66;;;4.10;56.19
77333;BME280;66408;51.326;12.070;2023-03-01T08:20:11;102011.50;;;4.21;55.64
77333;BME280;66408;51.326;12.070;2023-03-01T08:22:39;102010.31;;;4.42;55.19
77333;BME280;66408;51.326;12.070;2023-03-01T08:25:05;102003.72;;;4.13;55.98
77333;BME280;66408;51.326;12.070;2023-03-01T08:27:34;102004.06;;;4.66;55.50
77333;BME280;66408;51.326;12.070;2023-03-01T08:30:01;101995.38;;;5.00;54.47
77333;BME280;66408;51.326;12.070;2023-03-01T08:32:27;101996.72;;;5.10;54.33
77333;BME280;66408;51.326;12.070;2023-03-01T08:34:54;101991.50;;;4.78;54.18
77333;BME280;66408;51.326;12.070;2023-03-01T08:37:20;101992.91;;;5.17;54.34
77333;BME280;66408;51.326;12.070;2023-03-01T08:39:47;101990.22;;;4.81;53.72
77333;BME280;66408;51.326;12.070;2023-03-01T08:42:13;101996.97;;;4.90;53.83
77333;BME280;66408;51.326;12.070;2023-03-01T08:44:40;101985.53;;;5.24;53.78
77333;BME280;66408;51.326;12.070;2023-03-01T08:47:06;101992.16;;;5.70;53.18
77333;BME280;66408;51.326;12.070;2023-03-01T08:49:33;101993.56;;;5.91;52.05
77333;BME280;66408;51.326;12.070;2023-03-01T08:52:01;101984.50;;;5.97;51.50
77333;BME280;66408;51.326;12.070;2023-03-01T08:54:28;101981.97;;;6.25;50.60
77333;BME280;66408;51.326;12.070;2023-03-01T08:56:55;101978.44;;;6.36;49.99
77333;BME280;66408;51.326;12.070;2023-03-01T08:59:21;101989.38;;;6.53;49.87
77333;BME280;66408;51.326;12.070;2023-03-01T09:01:48;101978.06;;;6.21;50.91
77333;BME280;66408;51.326;12.070;2023-03-01T09:04:15;101979.84;;;6.16;51.56
77333;BME280;66408;51.326;12.070;2023-03-01T09:06:42;101974.06;;;5.89;50.76
77333;BME280;66408;51.326;12.070;2023-03-01T09:09:16;101976.53;;;6.72;50.37
77333;BME280;66408;51.326;12.070;2023-03-01T09:11:44;101972.44;;;6.58;49.04
77333;BME280;66408;51.326;12.070;2023-03-01T09:14:13;101964.53;;;6.91;49.25
77333;BME280;66408;51.326;12.070;2023-03-01T09:16:39;101972.69;;;7.08;48.13
77333;BME280;66408;51.326;12.070;2023-03-01T09:19:06;101968.22;;;6.50;48.69
77333;BME280;66408;51.326;12.070;2023-03-01T09:21:33;101963.22;;;6.82;49.50
77333;BME280;66408;51.326;12.070;2023-03-01T09:24:15;101955.88;;;7.63;48.74
77333;BME280;66408;51.326;12.070;2023-03-01T09:26:42;101960.81;;;7.66;46.28
77333;BME280;66408;51.326;12.070;2023-03-01T09:29:09;101950.13;;;7.59;46.99
77333;BME280;66408;51.326;12.070;2023-03-01T09:31:36;101950.06;;;7.71;45.81
77333;BME280;66408;51.326;12.070;2023-03-01T09:34:03;101948.47;;;7.41;46.17
77333;BME280;66408;51.326;12.070;2023-03-01T09:36:29;101956.38;;;8.10;45.68
77333;BME280;66408;51.326;12.070;2023-03-01T09:39:00;101946.38;;;8.10;45.20
77333;BME280;66408;51.326;12.070;2023-03-01T09:46:56;101947.91;;;8.78;44.37
77333;BME280;66408;51.326;12.070;2023-03-01T09:49:31;101941.84;;;9.15;43.80
77333;BME280;66408;51.326;12.070;2023-03-01T09:54:55;101941.63;;;8.01;43.60
77333;BME280;66408;51.326;12.070;2023-03-01T09:57:49;101930.03;;;7.72;44.61
77333;BME280;66408;51.326;12.070;2023-03-01T10:00:26;101936.28;;;7.89;44.44
77333;BME280;66408;51.326;12.070;2023-03-01T10:08:38;101935.53;;;8.10;43.31
77333;BME280;66408;51.326;12.070;2023-03-01T10:11:22;101938.66;;;7.85;43.47
77333;BME280;66408;51.326;12.070;2023-03-01T10:13:57;101929.28;;;8.26;44.02
77333;BME280;66408;51.326;12.070;2023-03-01T10:19:43;101930.25;;;8.76;42.28
77333;BME280;66408;51.326;12.070;2023-03-01T10:22:20;101927.84;;;8.57;42.52
77333;BME280;66408;51.326;12.070;2023-03-01T10:24:49;101920.16;;;9.15;42.56
77333;BME280;66408;51.326;12.070;2023-03-01T10:30:22;101929.34;;;10.04;41.02
77333;BME280;66408;51.326;12.070;2023-03-01T10:32:44;101923.19;;;10.56;39.13
77333;BME280;66408;51.326;12.070;2023-03-01T10:38:10;101918.63;;;12.20;37.25
77333;BME280;66408;51.326;12.070;2023-03-01T10:43:17;101913.72;;;11.92;37.35
77333;BME280;66408;51.326;12.070;2023-03-01T10:45:43;101916.38;;;12.48;36.07
77333;BME280;66408;51.326;12.070;2023-03-01T10:50:42;101913.94;;;12.26;35.87
77333;BME280;66408;51.326;12.070;2023-03-01T10:53:24;101913.03;;;11.04;36.87
77333;BME280;66408;51.326;12.070;2023-03-01T10:56:22;101912.44;;;10.82;36.90
77333;BME280;66408;51.326;12.070;2023-03-01T10:59:03;101908.13;;;10.96;36.79
77333;BME280;66408;51.326;12.070;2023-03-01T11:01:33;101896.41;;;10.85;37.17
77333;BME280;66408;51.326;12.070;2023-03-01T11:06:34;101896.25;;;11.42;36.37
77333;BME280;66408;51.326;12.070;2023-03-01T11:09:21;101908.78;;;11.53;36.08
77333;BME280;66408;51.326;12.070;2023-03-01T11:11:56;101900.78;;;10.34;38.44
77333;BME280;66408;51.326;12.070;2023-03-01T11:14:26;101900.28;;;9.68;39.39
77333;BME280;66408;51.326;12.070;2023-03-01T11:17:12;101896.78;;;9.14;41.23
77333;BME280;66408;51.326;12.070;2023-03-01T11:19:40;101893.19;;;9.08;42.10
77333;BME280;66408;51.326;12.070;2023-03-01T11:22:14;101889.38;;;9.63;42.03
77333;BME280;66408;51.326;12.070;2023-03-01T11:24:49;101894.78;;;9.31;42.40
77333;BME280;66408;51.326;12.070;2023-03-01T11:27:37;101888.63;;;9.41;41.60
77333;BME280;66408;51.326;12.070;2023-03-01T11:30:24;101888.28;;;9.32;41.85
77333;BME280;66408;51.326;12.070;2023-03-01T11:35:37;101888.38;;;9.42;42.15
77333;BME280;66408;51.326;12.070;2023-03-01T11:38:26;101882.28;;;9.30;41.83
77333;BME280;66408;51.326;12.070;2023-03-01T11:41:13;101888.78;;;9.93;41.24
77333;BME280;66408;51.326;12.070;2023-03-01T11:57:36;101861.72;;;9.07;38.74
77333;BME280;66408;51.326;12.070;2023-03-01T12:14:18;101849.56;;;10.73;37.98
77333;BME280;66408;51.326;12.070;2023-03-01T12:22:38;101837.78;;;9.63;39.77
77333;BME280;66408;51.326;12.070;2023-03-01T12:33:17;101831.75;;;8.70;39.79
77333;BME280;66408;51.326;12.070;2023-03-01T12:38:46;101816.41;;;8.81;39.71
77333;BME280;66408;51.326;12.070;2023-03-01T12:46:56;101812.09;;;9.76;38.26
77333;BME280;66408;51.326;12.070;2023-03-01T12:49:33;101800.66;;;9.73;38.06
77333;BME280;66408;51.326;12.070;2023-03-01T12:52:11;101801.16;;;9.70;39.00
77333;BME280;66408;51.326;12.070;2023-03-01T12:54:40;101791.97;;;10.19;37.49
77333;BME280;66408;51.326;12.070;2023-03-01T12:57:42;101792.72;;;9.67;37.34
77333;BME280;66408;51.326;12.070;2023-03-01T13:00:32;101781.13;;;10.29;37.60
77333;BME280;66408;51.326;12.070;2023-03-01T13:06:25;101789.13;;;10.61;37.78
77333;BME280;66408;51.326;12.070;2023-03-01T13:11:54;101779.41;;;10.18;37.47
77333;BME280;66408;51.326;12.070;2023-03-01T13:16:52;101779.03;;;9.15;39.32
77333;BME280;66408;51.326;12.070;2023-03-01T13:19:24;101779.91;;;9.57;39.68
77333;BME280;66408;51.326;12.070;2023-03-01T13:21:53;101784.50;;;9.57;38.84
77333;BME280;66408;51.326;12.070;2023-03-01T13:24:38;101778.88;;;9.68;38.68
77333;BME280;66408;51.326;12.070;2023-03-01T13:29:47;101773.97;;;10.13;38.39
77333;BME280;66408;51.326;12.070;2023-03-01T13:37:41;101776.16;;;9.68;38.68
77333;BME280;66408;51.326;12.070;2023-03-01T13:42:48;101769.75;;;9.43;39.76
77333;BME280;66408;51.326;12.070;2023-03-01T13:45:39;101752.84;;;8.45;41.11
77333;BME280;66408;51.326;12.070;2023-03-01T13:48:22;101756.06;;;8.95;41.10
77333;BME280;66408;51.326;12.070;2023-03-01T13:50:57;101754.28;;;8.79;40.43
77333;BME280;66408;51.326;12.070;2023-03-01T13:53:30;101748.88;;;8.52;41.65
77333;BME280;66408;51.326;12.070;2023-03-01T13:56:10;101749.16;;;8.83;40.87
77333;BME280;66408;51.326;12.070;2023-03-01T13:58:53;101750.69;;;9.00;39.91
77333;BME280;66408;51.326;12.070;2023-03-01T14:01:33;101746.44;;;8.56;41.01
77333;BME280;66408;51.326;12.070;2023-03-01T14:04:02;101738.56;;;8.54;40.76
77333;BME280;66408;51.326;12.070;2023-03-01T14:06:32;101738.94;;;8.63;40.45
77333;BME280;66408;51.326;12.070;2023-03-01T14:16:59;101727.19;;;8.52;38.94
77333;BME280;66408;51.326;12.070;2023-03-01T14:19:34;101722.81;;;8.29;38.18
77333;BME280;66408;51.326;12.070;2023-03-01T14:22:22;101721.69;;;8.04;38.86
77333;BME280;66408;51.326;12.070;2023-03-01T14:24:52;101720.78;;;8.15;38.47
77333;BME280;66408;51.326;12.070;2023-03-01T14:27:21;101711.50;;;8.11;38.62
77333;BME280;66408;51.326;12.070;2023-03-01T14:30:00;101705.53;;;8.09;38.40
77333;BME280;66408;51.326;12.070;2023-03-01T14:32:30;101710.88;;;8.25;37.86
77333;BME280;66408;51.326;12.070;2023-03-01T14:34:58;101710.44;;;7.90;37.70
77333;BME280;66408;51.326;12.070;2023-03-01T14:37:32;101711.66;;;7.99;38.17
77333;BME280;66408;51.326;12.070;2023-03-01T14:40:01;101708.56;;;8.12;38.05
77333;BME280;66408;51.326;12.070;2023-03-01T14:42:31;101712.47;;;8.00;38.19
77333;BME280;66408;51.326;12.070;2023-03-01T14:45:01;101708.84;;;7.72;38.23
77333;BME280;66408;51.326;12.070;2023-03-01T14:47:31;101706.34;;;7.66;37.80
77333;BME280;66408;51.326;12.070;2023-03-01T14:50:15;101708.22;;;7.27;37.68
77333;BME280;66408;51.326;12.070;2023-03-01T14:52:47;101703.97;;;7.14;38.08
77333;BME280;66408;51.326;12.070;2023-03-01T14:55:21;101704.78;;;7.14;37.49
77333;BME280;66408;51.326;12.070;2023-03-01T14:57:51;101695.19;;;7.07;37.76
77333;BME280;66408;51.326;12.070;2023-03-01T15:00:22;101700.19;;;6.98;38.27
77333;BME280;66408;51.326;12.070;2023-03-01T15:02:51;101696.75;;;7.03;38.17